sensor_id;sensor_type;location;lat;lon;timestamp;P1;durP1;ratioP1;P2;durP2;ratioP2
46116;SDS011;32591;48.102;11.772;2023-02-24T00:02:57;8.13;;;3.55;;
46116;SDS011;32591;48.102;11.772;2023-02-24T00:05:32;9.50;;;4.15;;
46116;SDS011;32591;48.102;11.772;2023-02-24T00:08:01;5.57;;;3.55;;
46116;SDS011;32591;48.102;11.772;2023-02-24T00:10:28;8.52;;;4.03;;
46116;SDS011;32591;48.102;11.772;2023-02-24T00:12:56;7.05;;;3.75;;
46116;SDS011;32591;48.102;11.772;2023-02-24T00:15:24;6.18;;;3.70;;
46116;SDS011;32591;48.102;11.772;2023-02-24T00:17:51;7.30;;;3.40;;
46116;SDS011;32591;48.102;11.772;2023-02-24T00:20:18;7.07;;;3.97;;
46116;SDS011;32591;48.102;11.772;2023-02-24T00:22:47;5.82;;;3.78;;
46116;SDS011;32591;48.102;11.772;2023-02-24T00:25:14;7.60;;;4.15;;
46116;SDS011;32591;48.102;11.772;2023-02-24T00:27:41;9.80;;;4.40;;
46116;SDS011;32591;48.102;11.772;2023-02-24T00:30:08;5.55;;;3.40;;
46116;SDS011;32591;48.102;11.772;2023-02-24T00:32:37;10.13;;;3.90;;
46116;SDS011;32591;48.102;11.772;2023-02-24T00:35:04;9.18;;;4.00;;
46116;SDS011;32591;48.102;11.772;2023-02-24T00:37:34;6.70;;;3.83;;
46116;SDS011;32591;48.102;11.772;2023-02-24T00:42:35;5.72;;;3.45;;
46116;SDS011;32591;48.102;11.772;2023-02-24T00:45:04;5.72;;;3.50;;
46116;SDS011;32591;48.102;11.772;2023-02-24T00:47:35;6.10;;;3.63;;
46116;SDS011;32591;48.102;11.772;2023-02-24T00:50:04;10.35;;;3.90;;
46116;SDS011;32591;48.102;11.772;2023-02-24T00:52:32;5.95;;;2.83;;
46116;SDS011;32591;48.102;11.772;2023-02-24T00:55:01;5.13;;;3.28;;
46116;SDS011;32591;48.102;11.772;2023-02-24T00:57:38;5.78;;;3.83;;
46116;SDS011;32591;48.102;11.772;2023-02-24T01:00:06;8.05;;;3.35;;
46116;SDS011;32591;48.102;11.772;2023-02-24T01:02:40;8.43;;;3.53;;
46116;SDS011;32591;48.102;11.772;2023-02-24T01:05:09;6.43;;;3.47;;
46116;SDS011;32591;48.102;11.772;2023-02-24T01:07:37;8.60;;;3.45;;
46116;SDS011;32591;48.102;11.772;2023-02-24T01:12:36;4.15;;;3.20;;
46116;SDS011;32591;48.102;11.772;2023-02-24T01:15:20;4.90;;;3.28;;
46116;SDS011;32591;48.102;11.772;2023-02-24T01:17:48;6.30;;;3.55;;
46116;SDS011;32591;48.102;11.772;2023-02-24T01:20:15;6.20;;;3.00;;
46116;SDS011;32591;48.102;11.772;2023-02-24T01:22:44;7.10;;;3.13;;
46116;SDS011;32591;48.102;11.772;2023-02-24T01:25:14;4.97;;;3.20;;
46116;SDS011;32591;48.102;11.772;2023-02-24T01:27:43;6.32;;;3.80;;
46116;SDS011;32591;48.102;11.772;2023-02-24T01:30:11;7.28;;;3.88;;
46116;SDS011;32591;48.102;11.772;2023-02-24T01:32:40;8.18;;;3.47;;
46116;SDS011;32591;48.102;11.772;2023-02-24T01:35:08;6.95;;;3.70;;
46116;SDS011;32591;48.102;11.772;2023-02-24T01:37:38;6.25;;;3.45;;
46116;SDS011;32591;48.102;11.772;2023-02-24T01:40:07;6.70;;;3.47;;
46116;SDS011;32591;48.102;11.772;2023-02-24T01:42:43;5.57;;;3.28;;
46116;SDS011;32591;48.102;11.772;2023-02-24T01:45:15;5.70;;;3.40;;
46116;SDS011;32591;48.102;11.772;2023-02-24T01:47:46;5.97;;;4.55;;
46116;SDS011;32591;48.102;11.772;2023-02-24T01:50:14;8.77;;;3.88;;
46116;SDS011;32591;48.102;11.772;2023-02-24T01:52:46;7.13;;;3.63;;
46116;SDS011;32591;48.102;11.772;2023-02-24T01:55:17;5.47;;;3.58;;
46116;SDS011;32591;48.102;11.772;2023-02-24T01:57:50;6.45;;;3.75;;
46116;SDS011;32591;48.102;11.772;2023-02-24T02:00:19;5.85;;;3.45;;
46116;SDS011;32591;48.102;11.772;2023-02-24T02:03:04;4.43;;;3.03;;
46116;SDS011;32591;48.102;11.772;2023-02-24T02:05:38;5.35;;;3.35;;
46116;SDS011;32591;48.102;11.772;2023-02-24T02:08:06;4.43;;;3.10;;
46116;SDS011;32591;48.102;11.772;2023-02-24T02:10:35;7.43;;;3.53;;
46116;SDS011;32591;48.102;11.772;2023-02-24T02:13:05;5.90;;;3.28;;
46116;SDS011;32591;48.102;11.772;2023-02-24T02:15:34;5.60;;;3.05;;
46116;SDS011;32591;48.102;11.772;2023-02-24T02:18:10;6.35;;;3.90;;
46116;SDS011;32591;48.102;11.772;2023-02-24T02:20:52;6.10;;;3.47;;
46116;SDS011;32591;48.102;11.772;2023-02-24T02:23:48;7.00;;;3.38;;
46116;SDS011;32591;48.102;11.772;2023-02-24T02:26:28;7.05;;;3.72;;
46116;SDS011;32591;48.102;11.772;2023-02-24T02:29:26;5.22;;;3.40;;
46116;SDS011;32591;48.102;11.772;2023-02-24T02:35:34;8.35;;;4.32;;
46116;SDS011;32591;48.102;11.772;2023-02-24T02:38:07;8.98;;;3.30;;
46116;SDS011;32591;48.102;11.772;2023-02-24T02:40:41;5.30;;;3.20;;
46116;SDS011;32591;48.102;11.772;2023-02-24T02:43:14;12.38;;;4.85;;
46116;SDS011;32591;48.102;11.772;2023-02-24T02:45:51;6.50;;;3.42;;
46116;SDS011;32591;48.102;11.772;2023-02-24T02:48:23;7.07;;;3.08;;
46116;SDS011;32591;48.102;11.772;2023-02-24T02:51:00;6.07;;;3.22;;
46116;SDS011;32591;48.102;11.772;2023-02-24T02:53:32;6.78;;;3.25;;
46116;SDS011;32591;48.102;11.772;2023-02-24T02:56:05;7.20;;;3.10;;
46116;SDS011;32591;48.102;11.772;2023-02-24T02:58:38;5.38;;;3.05;;
46116;SDS011;32591;48.102;11.772;2023-02-24T03:01:10;5.55;;;3.40;;
46116;SDS011;32591;48.102;11.772;2023-02-24T03:03:43;10.10;;;4.32;;
46116;SDS011;32591;48.102;11.772;2023-02-24T03:06:18;5.20;;;3.28;;
46116;SDS011;32591;48.102;11.772;2023-02-24T03:08:58;6.40;;;3.28;;
46116;SDS011;32591;48.102;11.772;2023-02-24T03:11:35;9.20;;;4.28;;
46116;SDS011;32591;48.102;11.772;2023-02-24T03:14:02;9.77;;;3.55;;
46116;SDS011;32591;48.102;11.772;2023-02-24T03:16:36;4.80;;;3.08;;
46116;SDS011;32591;48.102;11.772;2023-02-24T03:19:05;8.60;;;4.10;;
46116;SDS011;32591;48.102;11.772;2023-02-24T03:21:38;5.65;;;3.10;;
46116;SDS011;32591;48.102;11.772;2023-02-24T03:24:09;6.63;;;4.00;;
46116;SDS011;32591;48.102;11.772;2023-02-24T03:26:39;7.43;;;3.90;;
46116;SDS011;32591;48.102;11.772;2023-02-24T03:29:14;8.15;;;3.42;;
46116;SDS011;32591;48.102;11.772;2023-02-24T03:31:48;3.95;;;2.88;;
46116;SDS011;32591;48.102;11.772;2023-02-24T03:34:26;6.50;;;3.10;;
46116;SDS011;32591;48.102;11.772;2023-02-24T03:37:03;7.55;;;3.13;;
46116;SDS011;32591;48.102;11.772;2023-02-24T03:39:30;5.43;;;3.10;;
46116;SDS011;32591;48.102;11.772;2023-02-24T03:41:59;5.35;;;2.92;;
46116;SDS011;32591;48.102;11.772;2023-02-24T03:44:30;5.78;;;3.42;;
46116;SDS011;32591;48.102;11.772;2023-02-24T03:46:58;5.03;;;2.72;;
46116;SDS011;32591;48.102;11.772;2023-02-24T03:49:27;5.05;;;2.95;;
46116;SDS011;32591;48.102;11.772;2023-02-24T03:51:58;7.35;;;5.20;;
46116;SDS011;32591;48.102;11.772;2023-02-24T03:57:37;7.93;;;3.30;;
46116;SDS011;32591;48.102;11.772;2023-02-24T04:00:26;9.15;;;3.33;;
46116;SDS011;32591;48.102;11.772;2023-02-24T04:03:05;7.97;;;3.00;;
46116;SDS011;32591;48.102;11.772;2023-02-24T04:05:50;6.88;;;3.10;;
46116;SDS011;32591;48.102;11.772;2023-02-24T04:08:30;6.72;;;3.58;;
46116;SDS011;32591;48.102;11.772;2023-02-24T04:11:08;5.15;;;2.42;;
46116;SDS011;32591;48.102;11.772;2023-02-24T04:13:42;8.23;;;3.20;;
46116;SDS011;32591;48.102;11.772;2023-02-24T04:16:14;8.43;;;3.45;;
46116;SDS011;32591;48.102;11.772;2023-02-24T04:18:52;5.13;;;3.00;;
46116;SDS011;32591;48.102;11.772;2023-02-24T04:21:24;7.03;;;3.67;;
46116;SDS011;32591;48.102;11.772;2023-02-24T04:23:55;9.02;;;3.10;;
46116;SDS011;32591;48.102;11.772;2023-02-24T04:26:24;5.07;;;2.72;;
46116;SDS011;32591;48.102;11.772;2023-02-24T04:28:52;7.03;;;3.28;;
46116;SDS011;32591;48.102;11.772;2023-02-24T04:31:21;5.50;;;3.20;;
46116;SDS011;32591;48.102;11.772;2023-02-24T04:33:50;5.45;;;3.00;;
46116;SDS011;32591;48.102;11.772;2023-02-24T04:36:18;8.30;;;3.47;;
46116;SDS011;32591;48.102;11.772;2023-02-24T04:38:46;4.80;;;3.17;;
46116;SDS011;32591;48.102;11.772;2023-02-24T04:41:14;7.07;;;4.13;;
46116;SDS011;32591;48.102;11.772;2023-02-24T04:43:45;5.22;;;3.03;;
46116;SDS011;32591;48.102;11.772;2023-02-24T04:46:15;6.43;;;3.28;;
46116;SDS011;32591;48.102;11.772;2023-02-24T04:48:42;6.47;;;3.58;;
46116;SDS011;32591;48.102;11.772;2023-02-24T04:51:09;3.88;;;2.63;;
46116;SDS011;32591;48.102;11.772;2023-02-24T04:53:37;6.05;;;3.00;;
46116;SDS011;32591;48.102;11.772;2023-02-24T04:56:05;5.95;;;3.40;;
46116;SDS011;32591;48.102;11.772;2023-02-24T04:58:34;7.82;;;3.33;;
46116;SDS011;32591;48.102;11.772;2023-02-24T05:01:07;6.82;;;3.38;;
46116;SDS011;32591;48.102;11.772;2023-02-24T05:03:35;6.22;;;2.90;;
46116;SDS011;32591;48.102;11.772;2023-02-24T05:06:06;5.10;;;2.90;;
46116;SDS011;32591;48.102;11.772;2023-02-24T05:08:38;6.72;;;2.85;;
46116;SDS011;32591;48.102;11.772;2023-02-24T05:11:05;7.05;;;3.35;;
46116;SDS011;32591;48.102;11.772;2023-02-24T05:13:32;7.60;;;3.15;;
46116;SDS011;32591;48.102;11.772;2023-02-24T05:16:03;4.65;;;2.72;;
46116;SDS011;32591;48.102;11.772;2023-02-24T05:18:32;6.38;;;3.15;;
46116;SDS011;32591;48.102;11.772;2023-02-24T05:21:03;6.57;;;3.17;;
46116;SDS011;32591;48.102;11.772;2023-02-24T05:23:51;6.35;;;3.22;;
46116;SDS011;32591;48.102;11.772;2023-02-24T05:26:20;5.55;;;3.58;;
46116;SDS011;32591;48.102;11.772;2023-02-24T05:28:51;7.00;;;3.33;;
46116;SDS011;32591;48.102;11.772;2023-02-24T05:31:21;6.85;;;3.28;;
46116;SDS011;32591;48.102;11.772;2023-02-24T05:33:52;6.68;;;3.35;;
46116;SDS011;32591;48.102;11.772;2023-02-24T05:36:22;7.53;;;3.35;;
46116;SDS011;32591;48.102;11.772;2023-02-24T05:38:52;6.82;;;3.63;;
46116;SDS011;32591;48.102;11.772;2023-02-24T05:41:24;8.45;;;3.40;;
46116;SDS011;32591;48.102;11.772;2023-02-24T05:43:58;7.35;;;3.67;;
46116;SDS011;32591;48.102;11.772;2023-02-24T05:46:29;7.40;;;3.08;;
46116;SDS011;32591;48.102;11.772;2023-02-24T05:48:59;6.43;;;3.55;;
46116;SDS011;32591;48.102;11.772;2023-02-24T05:51:29;6.00;;;3.50;;
46116;SDS011;32591;48.102;11.772;2023-02-24T05:54:00;7.95;;;2.97;;
46116;SDS011;32591;48.102;11.772;2023-02-24T05:56:29;4.95;;;3.08;;
46116;SDS011;32591;48.102;11.772;2023-02-24T05:58:59;6.13;;;3.40;;
46116;SDS011;32591;48.102;11.772;2023-02-24T06:01:28;9.40;;;3.50;;
46116;SDS011;32591;48.102;11.772;2023-02-24T06:03:57;8.43;;;3.28;;
46116;SDS011;32591;48.102;11.772;2023-02-24T06:06:30;4.88;;;3.08;;
46116;SDS011;32591;48.102;11.772;2023-02-24T06:09:00;6.00;;;3.28;;
46116;SDS011;32591;48.102;11.772;2023-02-24T06:11:32;10.55;;;3.65;;
46116;SDS011;32591;48.102;11.772;2023-02-24T06:14:01;6.18;;;3.72;;
46116;SDS011;32591;48.102;11.772;2023-02-24T06:16:31;6.30;;;3.78;;
46116;SDS011;32591;48.102;11.772;2023-02-24T06:18:59;6.13;;;3.13;;
46116;SDS011;32591;48.102;11.772;2023-02-24T06:21:26;6.18;;;3.17;;
46116;SDS011;32591;48.102;11.772;2023-02-24T06:23:54;6.22;;;4.32;;
46116;SDS011;32591;48.102;11.772;2023-02-24T06:26:22;7.00;;;3.05;;
46116;SDS011;32591;48.102;11.772;2023-02-24T06:28:54;6.50;;;4.05;;
46116;SDS011;32591;48.102;11.772;2023-02-24T06:31:24;6.45;;;3.53;;
46116;SDS011;32591;48.102;11.772;2023-02-24T06:33:52;6.07;;;3.60;;
46116;SDS011;32591;48.102;11.772;2023-02-24T06:36:20;5.68;;;3.03;;
46116;SDS011;32591;48.102;11.772;2023-02-24T06:38:47;5.65;;;3.67;;
46116;SDS011;32591;48.102;11.772;2023-02-24T06:41:16;8.98;;;3.53;;
46116;SDS011;32591;48.102;11.772;2023-02-24T06:46:13;6.15;;;2.90;;
46116;SDS011;32591;48.102;11.772;2023-02-24T06:48:42;5.85;;;3.28;;
46116;SDS011;32591;48.102;11.772;2023-02-24T06:51:14;6.30;;;3.45;;
46116;SDS011;32591;48.102;11.772;2023-02-24T06:53:41;5.30;;;3.45;;
46116;SDS011;32591;48.102;11.772;2023-02-24T06:56:09;8.10;;;3.72;;
46116;SDS011;32591;48.102;11.772;2023-02-24T06:58:42;7.25;;;3.97;;
46116;SDS011;32591;48.102;11.772;2023-02-24T07:01:11;8.25;;;3.80;;
46116;SDS011;32591;48.102;11.772;2023-02-24T07:03:39;9.65;;;4.13;;
46116;SDS011;32591;48.102;11.772;2023-02-24T07:06:28;6.75;;;3.80;;
46116;SDS011;32591;48.102;11.772;2023-02-24T07:08:58;11.18;;;4.55;;
46116;SDS011;32591;48.102;11.772;2023-02-24T07:11:29;8.70;;;4.47;;
46116;SDS011;32591;48.102;11.772;2023-02-24T07:13:58;8.45;;;4.32;;
46116;SDS011;32591;48.102;11.772;2023-02-24T07:16:25;8.52;;;4.50;;
46116;SDS011;32591;48.102;11.772;2023-02-24T07:18:53;8.50;;;4.40;;
46116;SDS011;32591;48.102;11.772;2023-02-24T07:21:23;10.30;;;4.18;;
46116;SDS011;32591;48.102;11.772;2023-02-24T07:23:55;6.47;;;3.72;;
46116;SDS011;32591;48.102;11.772;2023-02-24T07:26:23;13.32;;;4.75;;
46116;SDS011;32591;48.102;11.772;2023-02-24T07:28:54;6.97;;;3.85;;
46116;SDS011;32591;48.102;11.772;2023-02-24T07:31:22;7.60;;;4.10;;
46116;SDS011;32591;48.102;11.772;2023-02-24T07:33:51;9.98;;;4.10;;
46116;SDS011;32591;48.102;11.772;2023-02-24T07:36:20;5.95;;;3.80;;
46116;SDS011;32591;48.102;11.772;2023-02-24T07:38:50;9.23;;;3.83;;
46116;SDS011;32591;48.102;11.772;2023-02-24T07:41:21;8.18;;;4.28;;
46116;SDS011;32591;48.102;11.772;2023-02-24T07:43:51;10.07;;;4.93;;
46116;SDS011;32591;48.102;11.772;2023-02-24T07:46:20;8.60;;;4.53;;
46116;SDS011;32591;48.102;11.772;2023-02-24T07:48:50;7.93;;;3.80;;
46116;SDS011;32591;48.102;11.772;2023-02-24T07:51:18;9.63;;;3.80;;
46116;SDS011;32591;48.102;11.772;2023-02-24T07:53:47;6.63;;;4.00;;
46116;SDS011;32591;48.102;11.772;2023-02-24T07:56:17;8.32;;;4.55;;
46116;SDS011;32591;48.102;11.772;2023-02-24T07:58:52;10.65;;;4.35;;
46116;SDS011;32591;48.102;11.772;2023-02-24T08:01:23;8.00;;;4.55;;
46116;SDS011;32591;48.102;11.772;2023-02-24T08:03:53;9.98;;;5.15;;
46116;SDS011;32591;48.102;11.772;2023-02-24T08:06:25;8.25;;;4.55;;
46116;SDS011;32591;48.102;11.772;2023-02-24T08:09:03;7.93;;;4.20;;
46116;SDS011;32591;48.102;11.772;2023-02-24T08:11:44;9.63;;;5.32;;
46116;SDS011;32591;48.102;11.772;2023-02-24T08:14:16;11.75;;;4.93;;
46116;SDS011;32591;48.102;11.772;2023-02-24T08:16:47;12.70;;;5.30;;
46116;SDS011;32591;48.102;11.772;2023-02-24T08:19:17;12.60;;;6.13;;
46116;SDS011;32591;48.102;11.772;2023-02-24T08:21:46;13.32;;;5.85;;
46116;SDS011;32591;48.102;11.772;2023-02-24T08:24:16;9.32;;;5.30;;
46116;SDS011;32591;48.102;11.772;2023-02-24T08:26:50;13.55;;;6.10;;
46116;SDS011;32591;48.102;11.772;2023-02-24T08:29:29;13.25;;;6.38;;
46116;SDS011;32591;48.102;11.772;2023-02-24T08:32:04;9.80;;;5.53;;
46116;SDS011;32591;48.102;11.772;2023-02-24T08:34:33;11.35;;;5.60;;
46116;SDS011;32591;48.102;11.772;2023-02-24T08:37:00;12.88;;;5.68;;
46116;SDS011;32591;48.102;11.772;2023-02-24T08:39:27;14.05;;;6.43;;
46116;SDS011;32591;48.102;11.772;2023-02-24T08:41:56;16.17;;;7.15;;
46116;SDS011;32591;48.102;11.772;2023-02-24T08:44:24;12.50;;;6.47;;
46116;SDS011;32591;48.102;11.772;2023-02-24T08:46:52;11.25;;;6.05;;
46116;SDS011;32591;48.102;11.772;2023-02-24T08:49:20;17.40;;;6.53;;
46116;SDS011;32591;48.102;11.772;2023-02-24T08:51:49;16.10;;;8.13;;
46116;SDS011;32591;48.102;11.772;2023-02-24T08:54:18;12.85;;;7.20;;
46116;SDS011;32591;48.102;11.772;2023-02-24T08:56:52;12.48;;;7.00;;
46116;SDS011;32591;48.102;11.772;2023-02-24T08:59:22;12.55;;;6.65;;
46116;SDS011;32591;48.102;11.772;2023-02-24T09:02:03;15.00;;;7.05;;
46116;SDS011;32591;48.102;11.772;2023-02-24T09:04:42;15.65;;;7.75;;
46116;SDS011;32591;48.102;11.772;2023-02-24T09:07:14;13.35;;;7.65;;
46116;SDS011;32591;48.102;11.772;2023-02-24T09:09:43;14.55;;;6.90;;
46116;SDS011;32591;48.102;11.772;2023-02-24T09:12:11;16.92;;;7.82;;
46116;SDS011;32591;48.102;11.772;2023-02-24T09:14:48;11.45;;;6.07;;
46116;SDS011;32591;48.102;11.772;2023-02-24T09:17:20;11.02;;;5.72;;
46116;SDS011;32591;48.102;11.772;2023-02-24T09:20:07;13.40;;;7.50;;
46116;SDS011;32591;48.102;11.772;2023-02-24T09:22:55;13.00;;;6.38;;
46116;SDS011;32591;48.102;11.772;2023-02-24T09:25:25;13.68;;;6.78;;
46116;SDS011;32591;48.102;11.772;2023-02-24T09:28:06;11.80;;;6.70;;
46116;SDS011;32591;48.102;11.772;2023-02-24T09:30:42;13.82;;;6.78;;
46116;SDS011;32591;48.102;11.772;2023-02-24T09:35:52;20.77;;;7.63;;
46116;SDS011;32591;48.102;11.772;2023-02-24T09:38:27;12.13;;;6.93;;
46116;SDS011;32591;48.102;11.772;2023-02-24T09:41:19;11.68;;;6.68;;
46116;SDS011;32591;48.102;11.772;2023-02-24T09:43:57;20.83;;;7.45;;
46116;SDS011;32591;48.102;11.772;2023-02-24T09:46:34;15.25;;;7.45;;
46116;SDS011;32591;48.102;11.772;2023-02-24T09:49:09;17.05;;;7.95;;
46116;SDS011;32591;48.102;11.772;2023-02-24T09:51:42;14.57;;;7.35;;
46116;SDS011;32591;48.102;11.772;2023-02-24T09:54:13;13.15;;;7.28;;
46116;SDS011;32591;48.102;11.772;2023-02-24T09:56:45;16.20;;;7.07;;
46116;SDS011;32591;48.102;11.772;2023-02-24T09:59:33;15.57;;;8.43;;
46116;SDS011;32591;48.102;11.772;2023-02-24T10:02:29;16.17;;;7.65;;
46116;SDS011;32591;48.102;11.772;2023-02-24T10:05:09;16.40;;;7.65;;
46116;SDS011;32591;48.102;11.772;2023-02-24T10:07:49;19.40;;;9.38;;
46116;SDS011;32591;48.102;11.772;2023-02-24T10:12:53;20.55;;;8.80;;
46116;SDS011;32591;48.102;11.772;2023-02-24T10:15:37;12.50;;;7.55;;
46116;SDS011;32591;48.102;11.772;2023-02-24T10:18:28;15.95;;;7.65;;
46116;SDS011;32591;48.102;11.772;2023-02-24T10:21:01;15.75;;;9.00;;
46116;SDS011;32591;48.102;11.772;2023-02-24T10:23:44;18.23;;;9.18;;
46116;SDS011;32591;48.102;11.772;2023-02-24T10:26:28;20.00;;;10.40;;
46116;SDS011;32591;48.102;11.772;2023-02-24T10:29:12;22.05;;;9.57;;
46116;SDS011;32591;48.102;11.772;2023-02-24T10:31:57;15.05;;;9.27;;
46116;SDS011;32591;48.102;11.772;2023-02-24T10:34:48;16.30;;;8.77;;
46116;SDS011;32591;48.102;11.772;2023-02-24T10:37:17;15.38;;;8.45;;
46116;SDS011;32591;48.102;11.772;2023-02-24T10:39:47;19.33;;;8.77;;
46116;SDS011;32591;48.102;11.772;2023-02-24T10:42:22;16.23;;;9.43;;
46116;SDS011;32591;48.102;11.772;2023-02-24T10:44:51;20.48;;;9.30;;
46116;SDS011;32591;48.102;11.772;2023-02-24T10:47:37;18.70;;;8.98;;
46116;SDS011;32591;48.102;11.772;2023-02-24T10:50:18;21.83;;;9.35;;
46116;SDS011;32591;48.102;11.772;2023-02-24T10:52:50;17.70;;;8.80;;
46116;SDS011;32591;48.102;11.772;2023-02-24T10:55:50;19.92;;;8.82;;
46116;SDS011;32591;48.102;11.772;2023-02-24T10:58:38;16.17;;;8.30;;
46116;SDS011;32591;48.102;11.772;2023-02-24T11:01:14;15.32;;;7.53;;
46116;SDS011;32591;48.102;11.772;2023-02-24T11:03:49;18.42;;;8.40;;
46116;SDS011;32591;48.102;11.772;2023-02-24T11:06:37;13.65;;;7.32;;
46116;SDS011;32591;48.102;11.772;2023-02-24T11:09:17;17.85;;;8.55;;
46116;SDS011;32591;48.102;11.772;2023-02-24T11:12:01;14.80;;;7.60;;
46116;SDS011;32591;48.102;11.772;2023-02-24T11:14:51;13.63;;;7.35;;
46116;SDS011;32591;48.102;11.772;2023-02-24T11:17:44;16.80;;;8.05;;
46116;SDS011;32591;48.102;11.772;2023-02-24T11:20:19;17.15;;;7.55;;
46116;SDS011;32591;48.102;11.772;2023-02-24T11:22:54;17.70;;;7.38;;
46116;SDS011;32591;48.102;11.772;2023-02-24T11:25:23;13.13;;;8.38;;
46116;SDS011;32591;48.102;11.772;2023-02-24T11:27:53;16.50;;;7.40;;
46116;SDS011;32591;48.102;11.772;2023-02-24T11:30:23;15.20;;;7.07;;
46116;SDS011;32591;48.102;11.772;2023-02-24T11:33:10;15.73;;;6.38;;
46116;SDS011;32591;48.102;11.772;2023-02-24T11:35:55;11.85;;;6.30;;
46116;SDS011;32591;48.102;11.772;2023-02-24T11:38:34;14.07;;;7.65;;
46116;SDS011;32591;48.102;11.772;2023-02-24T11:41:07;12.88;;;7.65;;
46116;SDS011;32591;48.102;11.772;2023-02-24T11:43:44;14.02;;;6.80;;
46116;SDS011;32591;48.102;11.772;2023-02-24T11:46:23;19.83;;;6.25;;
46116;SDS011;32591;48.102;11.772;2023-02-24T11:48:59;13.13;;;6.28;;
46116;SDS011;32591;48.102;11.772;2023-02-24T11:51:33;18.40;;;6.97;;
46116;SDS011;32591;48.102;11.772;2023-02-24T11:54:04;14.45;;;7.05;;
46116;SDS011;32591;48.102;11.772;2023-02-24T11:56:37;13.55;;;7.05;;
46116;SDS011;32591;48.102;11.772;2023-02-24T11:59:09;13.43;;;6.90;;
46116;SDS011;32591;48.102;11.772;2023-02-24T12:01:42;13.73;;;6.75;;
46116;SDS011;32591;48.102;11.772;2023-02-24T12:04:16;13.88;;;6.55;;
46116;SDS011;32591;48.102;11.772;2023-02-24T12:06:49;14.48;;;6.68;;
46116;SDS011;32591;48.102;11.772;2023-02-24T12:09:25;16.42;;;7.57;;
46116;SDS011;32591;48.102;11.772;2023-02-24T12:11:56;16.48;;;7.53;;
46116;SDS011;32591;48.102;11.772;2023-02-24T12:14:29;12.10;;;6.57;;
46116;SDS011;32591;48.102;11.772;2023-02-24T12:17:03;13.32;;;6.70;;
46116;SDS011;32591;48.102;11.772;2023-02-24T12:19:47;11.95;;;7.07;;
46116;SDS011;32591;48.102;11.772;2023-02-24T12:22:31;11.75;;;6.28;;
46116;SDS011;32591;48.102;11.772;2023-02-24T12:25:11;14.43;;;7.25;;
46116;SDS011;32591;48.102;11.772;2023-02-24T12:27:45;17.67;;;7.60;;
46116;SDS011;32591;48.102;11.772;2023-02-24T12:30:28;14.32;;;7.28;;
46116;SDS011;32591;48.102;11.772;2023-02-24T12:33:25;18.70;;;6.78;;
46116;SDS011;32591;48.102;11.772;2023-02-24T12:36:08;15.35;;;7.07;;
46116;SDS011;32591;48.102;11.772;2023-02-24T12:38:52;13.35;;;6.72;;
46116;SDS011;32591;48.102;11.772;2023-02-24T12:41:36;17.02;;;7.38;;
46116;SDS011;32591;48.102;11.772;2023-02-24T12:44:18;15.02;;;6.82;;
46116;SDS011;32591;48.102;11.772;2023-02-24T12:47:00;18.13;;;7.72;;
46116;SDS011;32591;48.102;11.772;2023-02-24T12:49:37;15.77;;;7.32;;
46116;SDS011;32591;48.102;11.772;2023-02-24T12:52:26;14.98;;;8.02;;
46116;SDS011;32591;48.102;11.772;2023-02-24T12:55:04;17.35;;;7.38;;
46116;SDS011;32591;48.102;11.772;2023-02-24T12:57:39;16.75;;;7.80;;
46116;SDS011;32591;48.102;11.772;2023-02-24T13:00:13;15.57;;;7.78;;
46116;SDS011;32591;48.102;11.772;2023-02-24T13:02:49;18.10;;;7.82;;
46116;SDS011;32591;48.102;11.772;2023-02-24T13:05:27;16.85;;;7.63;;
46116;SDS011;32591;48.102;11.772;2023-02-24T13:08:08;13.73;;;7.60;;
46116;SDS011;32591;48.102;11.772;2023-02-24T13:10:45;12.73;;;7.20;;
46116;SDS011;32591;48.102;11.772;2023-02-24T13:13:20;17.58;;;7.82;;
46116;SDS011;32591;48.102;11.772;2023-02-24T13:15:55;15.82;;;7.07;;
46116;SDS011;32591;48.102;11.772;2023-02-24T13:18:25;15.10;;;7.82;;
46116;SDS011;32591;48.102;11.772;2023-02-24T13:21:01;15.30;;;7.95;;
46116;SDS011;32591;48.102;11.772;2023-02-24T13:23:34;13.55;;;7.32;;
46116;SDS011;32591;48.102;11.772;2023-02-24T13:26:05;11.32;;;7.05;;
46116;SDS011;32591;48.102;11.772;2023-02-24T13:28:35;15.65;;;7.10;;
46116;SDS011;32591;48.102;11.772;2023-02-24T13:31:03;13.88;;;7.03;;
46116;SDS011;32591;48.102;11.772;2023-02-24T13:33:34;17.83;;;7.95;;
46116;SDS011;32591;48.102;11.772;2023-02-24T13:36:08;19.35;;;7.68;;
46116;SDS011;32591;48.102;11.772;2023-02-24T13:38:39;15.45;;;8.82;;
46116;SDS011;32591;48.102;11.772;2023-02-24T13:41:18;18.42;;;8.85;;
46116;SDS011;32591;48.102;11.772;2023-02-24T13:44:18;14.27;;;7.93;;
46116;SDS011;32591;48.102;11.772;2023-02-24T13:46:52;20.35;;;9.23;;
46116;SDS011;32591;48.102;11.772;2023-02-24T13:49:47;19.73;;;10.23;;
46116;SDS011;32591;48.102;11.772;2023-02-24T13:52:32;25.38;;;9.32;;
46116;SDS011;32591;48.102;11.772;2023-02-24T13:55:22;17.48;;;9.25;;
46116;SDS011;32591;48.102;11.772;2023-02-24T13:58:23;15.50;;;9.52;;
46116;SDS011;32591;48.102;11.772;2023-02-24T14:01:12;16.73;;;9.73;;
46116;SDS011;32591;48.102;11.772;2023-02-24T14:03:42;16.00;;;9.18;;
46116;SDS011;32591;48.102;11.772;2023-02-24T14:06:29;16.73;;;8.88;;
46116;SDS011;32591;48.102;11.772;2023-02-24T14:08:58;17.13;;;8.55;;
46116;SDS011;32591;48.102;11.772;2023-02-24T14:11:28;21.10;;;9.32;;
46116;SDS011;32591;48.102;11.772;2023-02-24T14:13:59;19.90;;;9.48;;
46116;SDS011;32591;48.102;11.772;2023-02-24T14:16:28;22.38;;;9.60;;
46116;SDS011;32591;48.102;11.772;2023-02-24T14:19:00;20.80;;;9.45;;
46116;SDS011;32591;48.102;11.772;2023-02-24T14:21:29;23.35;;;10.77;;
46116;SDS011;32591;48.102;11.772;2023-02-24T14:23:58;18.63;;;9.38;;
46116;SDS011;32591;48.102;11.772;2023-02-24T14:26:31;17.90;;;10.13;;
46116;SDS011;32591;48.102;11.772;2023-02-24T14:29:03;20.45;;;9.65;;
46116;SDS011;32591;48.102;11.772;2023-02-24T14:31:34;21.52;;;10.50;;
46116;SDS011;32591;48.102;11.772;2023-02-24T14:34:03;18.30;;;10.02;;
46116;SDS011;32591;48.102;11.772;2023-02-24T14:36:34;21.38;;;11.23;;
46116;SDS011;32591;48.102;11.772;2023-02-24T14:39:07;20.10;;;10.10;;
46116;SDS011;32591;48.102;11.772;2023-02-24T14:41:40;18.75;;;9.82;;
46116;SDS011;32591;48.102;11.772;2023-02-24T14:44:10;20.17;;;9.07;;
46116;SDS011;32591;48.102;11.772;2023-02-24T14:46:49;16.60;;;10.02;;
46116;SDS011;32591;48.102;11.772;2023-02-24T14:49:20;18.90;;;10.70;;
46116;SDS011;32591;48.102;11.772;2023-02-24T14:51:51;20.48;;;10.98;;
46116;SDS011;32591;48.102;11.772;2023-02-24T14:54:28;20.02;;;10.07;;
46116;SDS011;32591;48.102;11.772;2023-02-24T14:57:08;22.20;;;10.57;;
46116;SDS011;32591;48.102;11.772;2023-02-24T14:59:38;20.45;;;10.55;;
46116;SDS011;32591;48.102;11.772;2023-02-24T15:02:12;21.48;;;12.18;;
46116;SDS011;32591;48.102;11.772;2023-02-24T15:04:42;19.25;;;10.07;;
46116;SDS011;32591;48.102;11.772;2023-02-24T15:07:14;22.35;;;12.32;;
46116;SDS011;32591;48.102;11.772;2023-02-24T15:09:44;18.45;;;9.90;;
46116;SDS011;32591;48.102;11.772;2023-02-24T15:12:18;20.30;;;11.38;;
46116;SDS011;32591;48.102;11.772;2023-02-24T15:14:49;21.45;;;10.65;;
46116;SDS011;32591;48.102;11.772;2023-02-24T15:17:21;23.10;;;11.38;;
46116;SDS011;32591;48.102;11.772;2023-02-24T15:19:48;23.70;;;11.82;;
46116;SDS011;32591;48.102;11.772;2023-02-24T15:22:20;23.20;;;12.43;;
46116;SDS011;32591;48.102;11.772;2023-02-24T15:24:51;21.70;;;11.30;;
46116;SDS011;32591;48.102;11.772;2023-02-24T15:27:24;21.63;;;11.63;;